Date,TemperatureHighF,TemperatureAvgF,TemperatureLowF,DewpointHighF,DewpointAvgF,DewpointLowF,HumidityHigh,HumidityAvg,HumidityLow,PressureMaxIn,PressureMinIn,WindSpeedMaxMPH,WindSpeedAvgMPH,GustSpeedMaxMPH,PrecipitationSumIn
2013-1-10,34.0,33.5,32.8,32.4,31.9,31.2,94,94,93,29.92,29.90,0,0,0,0.00
2013-1-11,38.0,31.2,24.7,32.1,27.8,21.6,95,88,64,30.12,29.91,0,0,0,0.01
2013-1-12,36.4,26.4,21.1,29.5,23.0,18.5,92,87,72,30.23,30.11,0,0,0,0.00
2013-1-13,36.5,26.1,17.5,32.0,22.4,14.7,92,86,70,30.29,30.21,0,0,0,0.02
2013-1-14,33.5,29.7,23.8,31.3,27.5,20.7,93,91,88,30.35,30.26,9,1,9,0.00
2013-1-15,37.4,32.8,27.7,34.5,30.8,25.8,95,92,88,30.47,30.34,10,2,10,0.09
2013-1-16,32.8,30.1,27.5,31.2,28.6,25.6,95,94,92,30.45,30.29,5,1,5,0.00
2013-1-17,33.7,30.3,27.5,32.3,28.9,26.0,96,95,94,30.30,30.09,7,1,7,0.00
2013-1-18,45.7,32.6,26.3,42.2,30.5,24.3,95,92,87,30.10,30.03,8,2,8,0.00
2013-1-19,34.0,31.6,29.9,32.7,30.5,28.9,96,96,95,30.15,30.09,6,2,6,0.00
2013-1-20,33.5,31.2,29.5,32.0,30.2,28.5,96,96,95,30.16,30.04,5,1,5,0.00
2013-1-21,43.2,31.3,26.1,40.5,29.5,24.1,96,93,87,30.05,29.90,5,1,5,0.00
2013-1-22,39.8,31.6,25.0,36.2,29.1,22.8,94,91,86,29.91,29.69,9,3,9,0.00
2013-1-23,38.2,36.0,33.7,35.8,33.5,30.8,94,91,84,29.96,29.65,13,5,13,0.18
2013-1-24,45.5,38.9,32.0,42.6,36.9,30.1,95,93,88,30.00,29.84,16,6,16,0.12
2013-1-25,52.2,41.9,32.2,48.7,39.6,30.0,96,92,82,29.86,29.71,12,4,12,0.09
2013-1-26,45.4,39.5,32.2,41.8,37.0,30.2,94,91,86,29.84,29.67,15,4,15,0.32
2013-1-27,41.4,37.8,33.1,39.1,35.5,31.1,94,92,89,29.88,29.80,14,4,14,0.03
2013-1-28,42.5,39.9,36.0,40.7,38.1,33.9,95,93,88,29.94,29.82,8,2,8,0.33
2013-1-29,49.0,44.4,40.1,46.2,42.2,38.5,95,92,81,30.19,29.93,12,2,12,0.11
2013-1-30,49.5,46.5,44.3,47.7,44.9,42.0,95,94,91,30.19,30.13,7,2,7,0.23
2013-1-31,49.1,44.4,38.0,46.7,42.5,36.3,95,93,89,30.21,30.09,11,3,12,0.04
2013-2-1,51.7,42.5,37.4,45.5,40.1,35.6,96,91,78,30.16,30.09,8,2,8,0.00
2013-2-2,43.9,37.6,33.7,42.0,35.4,31.5,94,92,90,30.12,30.07,5,2,5,0.00
2013-2-3,45.0,43.4,40.9,42.9,41.7,39.5,95,94,92,30.09,30.05,9,6,9,0.00
2013-2-4,51.5,47.6,41.8,46.5,43.8,40.1,94,87,82,29.93,29.69,12,4,12,0.00
2013-2-5,52.0,45.0,42.3,46.0,41.9,39.3,93,89,76,29.76,29.63,21,7,21,0.68
2013-2-6,46.4,44.0,41.4,43.7,41.5,39.2,93,91,86,29.84,29.56,21,9,21,0.32
2013-2-7,49.3,40.1,31.1,41.7,36.3,28.5,93,86,70,29.95,29.60,19,4,19,0.11
2013-2-8,45.9,37.9,29.5,38.3,34.0,27.6,96,86,71,30.07,29.95,9,2,9,0.01
2013-2-9,46.6,39.7,32.8,42.1,36.8,30.5,94,89,81,30.09,30.02,6,1,6,0.00
2013-2-10,44.6,41.9,40.0,40.1,38.2,36.6,95,87,77,30.14,30.09,10,2,10,0.00
2013-2-11,49.7,42.9,39.4,45.7,40.3,37.4,93,91,85,30.14,30.09,8,2,9,0.00
2013-2-12,52.2,46.5,41.8,48.0,43.5,39.9,94,89,79,30.20,30.12,15,3,15,0.00
2013-2-13,48.8,43.7,35.3,44.0,40.2,32.2,93,87,72,30.29,30.15,8,2,8,0.00
2013-2-14,47.2,41.3,34.2,44.5,39.0,31.1,94,92,89,30.32,30.27,11,2,11,0.00
2013-2-15,55.1,45.6,36.4,47.5,42.1,33.1,95,88,74,30.30,29.95,9,2,9,0.00
2013-2-16,51.5,42.2,34.2,45.4,38.4,32.1,95,87,67,30.03,29.96,11,2,11,0.05
2013-2-17,47.7,39.2,32.9,40.4,35.2,30.1,93,86,64,30.04,29.87,9,2,9,0.02
2013-2-18,45.7,39.1,34.0,40.3,35.6,31.6,93,87,77,29.87,29.49,16,5,16,0.10
2013-2-19,51.1,41.3,32.2,41.0,36.5,28.2,94,84,63,29.77,29.47,15,3,15,0.00
2013-2-20,44.5,35.8,30.2,40.8,32.8,26.8,93,89,81,29.83,29.75,13,3,13,0.17
2013-2-21,44.8,40.4,37.8,40.9,38.0,35.6,94,91,85,29.89,29.79,18,4,18,0.18
2013-2-22,47.9,41.6,36.4,44.3,38.4,32.8,94,89,75,29.87,29.56,25,8,25,1.39
2013-2-23,47.2,39.8,35.8,41.6,35.2,32.5,92,84,64,30.17,29.76,23,3,23,0.31
2013-2-24,48.6,42.4,37.4,41.9,37.7,34.5,91,84,75,30.17,29.74,22,8,22,0.05
2013-2-25,47.9,41.2,33.7,39.5,36.3,30.1,91,83,63,30.11,29.70,21,3,21,0.71
2013-2-26,47.5,39.6,32.9,40.6,35.3,29.8,92,85,71,30.12,29.98,20,6,20,0.03
2013-2-27,46.8,43.5,40.5,43.4,40.8,37.7,93,90,87,30.06,29.98,14,4,14,0.11
2013-2-28,56.0,50.6,44.3,52.6,48.1,42.1,95,91,86,30.14,29.95,18,8,18,0.48
2013-3-1,57.6,51.9,47.3,53.1,49.4,45.0,94,91,84,30.18,30.06,14,5,14,0.17
2013-3-2,54.7,47.4,38.7,50.2,43.8,34.1,94,87,78,30.07,29.89,14,4,14,0.04
2013-3-3,49.0,39.5,32.2,39.6,33.8,28.1,91,81,63,30.06,30.01,18,3,18,0.00
2013-3-4,56.9,38.2,27.2,40.0,31.2,24.9,95,78,45,30.04,29.67,13,2,13,0.01
2013-3-5,45.4,39.8,31.5,41.2,36.5,27.0,93,88,82,29.67,29.44,12,0,12,0.22
2013-3-6,44.3,42.0,40.5,41.3,39.8,38.4,95,92,88,29.67,29.33,0,0,0,0.34
2013-3-7,56.3,43.9,34.2,45.5,39.2,30.6,93,84,56,29.83,29.67,0,0,0,0.08
2013-3-8,50.9,39.9,32.0,42.4,35.8,29.5,95,86,70,29.99,29.82,0,0,0,0.00
2013-3-9,59.9,41.6,29.3,47.7,36.2,26.7,93,82,59,30.27,29.99,0,0,0,0.01
2013-3-10,46.3,40.4,32.4,43.4,37.4,28.5,92,89,84,30.26,30.17,0,0,0,0.06
2013-3-11,52.7,46.9,42.7,48.1,44.1,40.4,93,90,83,30.19,29.95,0,0,0,0.01
2013-3-12,54.4,51.0,48.1,50.5,47.7,45.7,94,89,83,29.95,29.88,18,1,18,0.03
2013-3-13,56.2,51.7,47.9,51.3,47.8,45.3,91,87,83,29.94,29.84,8,1,8,0.00
2013-3-14,55.1,50.2,47.3,50.2,46.7,44.8,96,88,74,29.93,29.79,23,3,23,0.07
2013-3-15,59.4,51.4,43.7,51.5,46.6,41.6,94,84,64,29.97,29.92,12,2,12,0.00
2013-3-16,50.0,45.8,39.2,45.2,41.7,35.0,90,86,71,29.92,29.74,14,3,14,0.21
2013-3-17,47.3,40.4,35.1,40.3,35.4,32.1,91,83,66,30.02,29.82,13,2,13,0.14
2013-3-18,53.8,42.1,34.4,43.7,35.8,29.3,91,79,50,30.00,29.96,12,2,12,0.07
2013-3-19,47.9,39.8,31.3,43.9,36.2,27.6,92,87,76,29.95,29.35,15,4,15,0.54
2013-3-20,50.4,45.6,36.7,48.1,41.5,33.1,93,86,76,29.86,29.18,22,2,22,1.51
2013-3-21,49.0,39.1,34.6,38.3,33.6,30.7,92,81,59,30.02,29.85,18,2,18,0.16
2013-3-22,43.9,36.4,31.3,37.3,32.1,28.5,91,85,67,30.13,30.01,15,2,15,0.09
2013-3-23,51.8,38.5,32.0,39.8,32.8,28.3,90,81,57,30.14,30.04,6,1,6,0.01
2013-3-24,56.3,42.4,33.7,41.4,35.0,29.8,89,76,53,30.04,29.85,6,1,6,0.00
2013-3-25,60.3,46.5,34.0,46.5,37.7,29.6,89,73,46,29.86,29.68,4,1,4,0.00
2013-3-26,58.9,50.3,42.5,46.9,43.5,38.9,88,78,61,29.76,29.71,5,1,5,0.02
2013-3-27,61.6,53.0,48.2,50.6,46.9,44.4,90,80,56,29.73,29.67,8,1,8,0.05
2013-3-28,62.5,53.0,48.6,52.7,48.0,45.1,91,84,62,29.90,29.75,10,1,10,0.22
2013-3-29,63.5,52.4,44.3,50.6,46.0,38.8,93,80,58,29.99,29.90,8,2,8,0.00
2013-3-30,67.5,51.6,37.8,49.9,42.5,33.9,91,73,48,29.99,29.79,13,3,13,0.00
2013-3-31,76.3,55.6,38.7,53.2,44.7,34.0,85,69,39,29.80,29.64,7,2,7,0.00
2013-4-1,68.4,54.4,45.2,51.8,45.4,39.6,85,73,50,29.92,29.75,13,3,13,0.00
2013-4-2,59.0,52.5,46.6,49.0,45.8,42.4,88,78,64,29.96,29.90,8,2,8,0.00
2013-4-3,64.3,54.2,46.8,52.7,47.7,43.2,89,79,62,29.94,29.69,7,1,7,0.00
2013-4-4,57.6,52.5,48.4,53.3,48.7,46.0,91,87,77,29.68,29.41,17,4,17,0.35
2013-4-5,57.1,52.3,48.8,51.3,48.4,45.4,92,87,76,29.65,29.47,20,5,20,1.61
2013-4-6,56.0,49.2,44.3,48.6,44.3,39.4,90,83,66,29.71,29.46,21,4,21,1.54
2013-4-7,52.4,45.7,41.2,46.5,41.3,36.9,94,85,72,29.67,29.20,16,2,16,0.83
2013-4-8,53.6,46.0,40.0,46.1,40.5,36.6,92,81,64,30.04,29.67,9,2,9,0.00
2013-4-9,54.4,48.4,36.9,46.3,42.7,33.3,92,81,69,30.09,29.96,14,5,14,0.00
2013-4-10,54.7,50.8,46.4,50.1,44.3,39.3,92,79,66,30.06,29.77,16,5,16,0.38
2013-4-11,54.9,46.0,37.1,43.5,38.2,31.5,89,75,51,30.08,29.94,15,3,15,0.01
2013-4-12,49.3,42.2,33.8,43.4,37.1,29.3,91,82,66,29.95,29.52,19,4,19,0.08
2013-4-13,51.5,43.6,37.1,42.9,37.7,33.0,88,80,68,29.78,29.61,15,2,15,0.22
2013-4-14,51.7,42.4,35.3,44.8,37.9,31.7,90,84,68,29.79,29.69,11,1,12,0.15
2013-4-15,55.3,42.4,31.3,41.0,35.1,28.5,91,77,49,29.95,29.69,19,2,19,0.14
2013-4-16,56.7,45.4,35.6,43.3,37.0,32.1,93,74,47,30.15,29.93,14,2,14,0.00
2013-4-17,56.5,44.7,32.4,46.5,37.2,28.4,89,76,56,30.21,30.15,12,2,12,0.01
2013-4-18,53.8,48.2,43.0,47.1,43.4,38.8,89,83,75,30.21,30.01,14,5,14,0.02
2013-4-19,58.0,51.7,48.6,50.7,46.8,44.3,92,84,68,30.01,29.83,15,6,15,0.08
2013-4-20,58.0,50.6,46.4,47.7,44.2,41.3,91,79,65,30.06,30.00,16,3,16,0.01
2013-4-21,56.2,48.1,41.2,46.3,42.0,36.9,90,80,60,30.10,29.98,13,2,13,0.01
2013-4-22,60.8,46.8,33.8,45.2,36.5,29.5,94,71,36,30.23,30.10,13,3,13,0.00
2013-4-23,63.7,47.4,31.9,39.5,32.0,26.9,85,60,29,30.17,29.94,17,2,17,0.00
2013-4-24,69.5,51.4,32.8,43.8,35.6,27.5,84,59,28,30.06,29.80,14,3,14,0.00
2013-4-25,72.4,53.9,37.1,48.6,40.6,31.5,84,63,39,29.93,29.78,13,3,13,0.00
2013-4-26,74.0,53.8,37.4,53.2,40.0,32.8,91,64,28,30.01,29.92,11,2,11,0.00
2013-4-27,58.5,49.8,38.9,48.1,41.8,32.9,85,75,54,30.01,29.95,11,2,11,0.00
2013-4-29,42.5,42.1,41.8,35.5,34.7,34.0,77,75,74,29.96,29.95,9,3,9,0.00
2013-4-30,56.5,45.9,37.4,38.5,34.5,30.1,86,66,40,30.21,29.96,16,4,16,0.03
2013-5-1,37.3,33.4,31.0,30.3,27.6,25.8,82,79,75,30.28,30.21,4,1,4,0.00
2013-5-5,62.1,57.5,53.1,44.7,43.4,41.4,65,59,53,29.56,29.52,3,1,3,0.00
2013-5-6,83.2,62.4,42.5,57.9,47.0,36.0,79,60,30,29.61,29.52,15,3,15,0.00
2013-5-7,70.2,57.7,47.9,55.0,48.8,41.3,83,73,56,29.78,29.61,14,3,14,0.00
2013-5-8,71.5,58.6,50.8,54.9,50.0,45.3,89,74,51,29.90,29.78,12,3,12,0.00
2013-5-9,76.0,59.4,48.2,57.6,49.7,42.7,90,73,43,29.96,29.84,13,3,13,0.00
2013-5-10,81.4,63.4,45.5,60.2,51.2,40.8,88,67,38,29.94,29.84,10,2,10,0.00
2013-5-11,82.3,65.9,53.3,62.5,54.7,47.8,84,69,42,29.95,29.75,12,3,12,0.00
2013-5-12,74.9,64.4,59.0,56.9,54.1,50.9,87,70,46,29.85,29.77,20,3,20,0.00
2013-5-13,64.4,56.6,43.6,55.7,48.8,37.8,86,76,58,29.96,29.73,21,4,21,0.10
2013-5-14,65.3,52.7,41.6,48.2,42.8,36.6,87,71,46,29.97,29.85,7,2,7,0.00
2013-5-15,59.4,51.1,42.5,51.5,45.2,37.4,88,80,70,29.87,29.75,12,3,12,0.03
2013-5-16,70.9,57.0,49.1,55.6,50.7,45.7,90,80,54,29.75,29.63,8,2,8,0.15
2013-5-17,63.0,55.4,47.3,52.2,48.0,40.6,88,77,63,29.83,29.72,11,3,11,0.04
2013-5-18,58.5,53.4,45.9,51.7,48.0,40.6,90,82,74,30.02,29.83,6,2,6,0.10
2013-5-19,63.0,55.2,48.6,50.5,47.0,41.7,92,75,53,30.15,30.03,8,4,8,0.00
2013-5-20,70.6,55.2,44.6,54.1,46.2,39.1,87,73,52,30.11,29.68,9,3,9,0.04
2013-5-21,54.5,49.4,45.4,48.3,43.3,39.5,88,80,65,29.68,29.56,12,2,12,0.40
2013-5-22,50.9,46.2,43.7,46.8,42.4,39.5,88,86,82,29.68,29.62,10,3,10,0.75
2013-5-23,50.8,47.1,43.6,47.6,44.3,40.2,91,90,88,29.72,29.68,14,4,14,1.24
2013-5-24,58.7,51.5,45.5,53.8,47.1,43.1,92,85,72,29.82,29.70,13,4,13,0.08
2013-5-25,59.0,52.2,45.4,51.4,47.5,42.4,90,84,73,29.81,29.70,7,2,7,0.02
2013-5-26,64.1,55.6,49.5,56.3,50.2,46.1,92,83,66,29.74,29.68,11,2,11,0.22
2013-5-27,61.9,55.4,50.6,57.7,50.7,47.1,92,84,74,29.71,29.44,19,6,19,0.60
2013-5-28,64.3,55.6,50.8,53.5,49.0,46.3,89,79,63,29.64,29.50,17,4,17,0.04
2013-5-29,59.0,53.3,49.1,51.8,48.1,44.1,92,83,69,29.76,29.39,13,2,13,0.72
2013-5-30,63.4,52.6,45.5,50.9,46.3,41.7,90,80,61,30.00,29.76,12,3,12,0.18
2013-5-31,67.5,55.7,46.1,51.2,46.4,42.6,88,72,51,30.07,29.98,10,2,10,0.00
2013-6-1,74.0,58.9,47.5,56.5,49.6,41.9,87,72,51,29.99,29.77,12,3,12,0.00
2013-6-2,60.3,55.0,50.0,52.3,49.1,45.6,87,81,71,29.83,29.79,10,2,10,0.00
2013-6-13,56.5,54.5,52.4,51.7,50.1,48.6,87,85,83,29.90,29.90,3,1,3,0.00
2013-6-15,77.2,70.4,58.7,57.7,54.8,49.3,73,58,51,29.76,29.65,6,3,6,0.00
2013-6-16,70.9,60.6,51.3,58.5,52.4,45.7,86,75,63,29.85,29.76,6,2,6,0.00
2013-6-17,76.5,62.4,53.3,58.3,53.2,48.2,86,73,47,29.85,29.68,16,3,16,0.10
2013-6-18,67.5,57.1,48.1,54.8,50.5,43.9,88,79,60,29.73,29.67,12,2,12,0.26
2013-6-19,68.2,57.0,49.3,54.6,49.0,44.2,89,76,54,29.79,29.67,12,2,12,0.02
2013-6-20,63.0,55.3,46.8,54.0,48.6,43.2,90,78,62,29.88,29.75,11,2,11,0.02
2013-6-21,66.6,58.0,52.2,58.0,52.5,48.4,90,82,71,29.90,29.85,9,1,9,0.18
2013-6-22,78.8,62.4,47.5,60.7,52.6,43.4,90,72,42,29.87,29.58,10,2,10,0.00
2013-6-23,70.6,63.5,58.7,61.1,57.6,53.6,87,81,71,29.58,29.36,8,1,8,0.09
2013-6-24,68.0,60.5,55.8,59.1,55.4,51.5,89,83,70,29.43,29.32,17,4,17,0.24
2013-6-25,69.7,61.1,56.5,61.2,56.0,53.3,91,84,70,29.57,29.39,18,5,18,0.42
2013-6-26,68.4,62.2,57.2,61.8,58.0,53.7,91,86,77,29.78,29.57,17,4,17,0.12
2013-6-27,71.6,64.1,58.9,65.4,60.5,56.5,93,88,79,29.91,29.75,12,2,12,0.34
2013-6-28,87.3,75.8,62.5,70.7,64.5,56.7,90,69,48,29.90,29.77,13,4,13,0.00
2013-6-29,85.0,71.7,60.1,66.7,61.2,56.2,90,71,49,29.84,29.71,9,2,9,0.00
2013-6-30,89.6,73.9,57.8,69.5,62.5,53.3,87,69,49,29.74,29.57,13,3,13,0.00
2013-7-1,87.1,71.9,60.1,69.0,61.6,55.0,86,71,53,29.78,29.65,13,3,13,0.00
2013-7-2,79.2,67.2,54.7,61.8,56.6,50.1,90,70,50,29.83,29.77,14,3,14,0.00
2013-7-3,76.7,63.2,50.8,58.6,51.7,45.5,83,67,45,29.89,29.77,15,4,15,0.00
2013-7-4,69.5,59.4,47.3,53.9,49.0,41.5,83,69,55,29.86,29.78,15,4,15,0.00
2013-7-5,72.4,60.2,49.0,58.1,50.8,43.0,84,72,56,29.78,29.68,11,2,11,0.00
2013-7-6,76.9,61.5,47.0,59.5,51.5,41.5,85,71,48,29.71,29.58,13,3,14,0.00
2013-7-7,72.5,61.1,51.1,58.6,52.4,45.5,85,74,60,29.71,29.62,14,3,14,0.00
2013-7-8,76.9,62.5,49.1,61.5,53.4,43.8,85,73,55,29.82,29.71,9,2,10,0.00
2013-7-9,84.6,68.3,53.1,62.1,55.1,48.1,87,65,43,29.82,29.72,14,3,14,0.00
2013-7-10,72.2,61.6,50.2,53.1,48.5,43.2,79,63,46,29.81,29.69,17,4,17,0.00
2013-7-11,72.0,59.3,46.1,50.8,46.6,40.6,83,64,44,29.79,29.71,16,4,16,0.00
2013-7-12,69.5,57.3,45.7,52.8,46.7,39.2,80,69,50,29.84,29.73,13,3,13,0.00
2013-7-13,76.0,60.1,41.2,53.6,45.9,35.1,82,62,34,29.90,29.80,15,4,15,0.00
2013-7-14,81.4,64.3,45.9,53.4,45.6,37.2,82,54,28,29.84,29.71,14,4,14,0.00
2013-7-15,80.5,65.1,45.7,54.3,45.7,38.6,82,53,25,29.75,29.57,18,5,18,0.00
2013-7-16,82.3,69.4,52.0,60.2,52.6,43.1,76,56,40,29.64,29.51,13,3,13,0.00
2013-7-17,71.6,62.6,54.2,57.2,53.2,47.6,84,72,58,29.91,29.64,11,3,11,0.00
2013-7-18,77.8,62.6,51.8,60.1,53.4,45.2,87,73,54,29.94,29.81,15,4,15,0.00
2013-7-19,77.4,62.5,51.5,61.7,53.7,45.5,86,74,57,29.88,29.74,14,4,14,0.00
2013-7-20,75.2,62.0,54.0,59.0,52.9,47.8,86,73,51,29.81,29.67,16,4,16,0.00
2013-7-21,75.4,61.8,52.9,59.7,53.2,46.3,85,74,57,29.70,29.62,16,4,16,0.00
2013-7-22,74.5,63.2,55.8,60.9,55.2,50.6,88,76,61,29.76,29.67,14,3,14,0.00
2013-7-23,85.5,67.4,52.9,64.1,56.3,50.6,93,71,39,29.76,29.65,14,5,14,0.00
2013-7-24,83.7,66.3,51.5,61.8,53.3,45.5,87,65,42,29.76,29.68,14,4,14,0.00
2013-7-25,84.2,65.0,48.2,58.8,50.6,41.8,84,62,37,29.80,29.73,12,3,12,0.00
2013-7-26,82.4,64.6,47.7,57.3,47.5,41.0,79,57,28,29.85,29.77,17,4,17,0.00
2013-7-27,76.3,60.6,44.6,56.1,47.6,37.5,78,64,45,29.86,29.70,14,3,14,0.00
2013-7-28,66.8,63.9,58.5,54.6,53.6,50.9,76,69,63,29.72,29.70,6,2,6,0.00
2013-8-9,75.1,66.7,60.8,62.0,57.5,55.1,83,73,63,29.64,29.53,9,2,9,0.00
2013-8-10,75.1,64.5,58.3,63.6,57.7,52.9,90,79,64,29.73,29.57,13,3,13,0.05
2013-8-11,68.8,61.7,56.2,59.3,55.0,50.4,85,79,68,29.75,29.68,7,1,7,0.00
2013-8-12,73.6,63.6,55.8,58.2,54.6,48.6,88,73,55,29.77,29.69,11,2,11,0.00
2013-8-13,84.1,65.3,50.0,62.2,52.6,44.7,82,66,40,29.78,29.60,8,1,8,0.00
2013-8-14,80.5,62.7,51.1,60.4,53.6,45.5,87,74,44,29.63,29.59,12,3,12,0.09
2013-8-15,69.8,65.6,62.3,65.1,62.0,59.2,91,88,84,29.67,29.60,5,1,5,0.08
2013-8-16,84.6,69.8,62.1,66.8,61.0,56.0,93,76,41,29.72,29.63,12,2,12,0.00
2013-8-17,77.6,65.5,57.2,61.2,56.9,52.5,86,75,56,29.77,29.71,7,2,7,0.00
2013-8-18,74.9,64.9,56.7,60.9,55.9,51.4,87,74,59,29.81,29.75,13,3,13,0.00
2013-8-19,77.9,63.8,51.1,60.5,53.1,46.1,84,70,47,29.79,29.75,12,3,12,0.00
2013-8-20,77.0,63.3,47.9,54.5,49.4,41.9,84,63,39,29.83,29.71,15,4,15,0.00
2013-8-21,82.3,67.7,54.0,52.6,49.8,46.3,77,55,32,29.74,29.59,14,5,14,0.00
2013-8-22,81.4,67.4,51.5,61.6,53.5,44.6,78,62,43,29.61,29.51,10,2,10,0.00
2013-8-23,74.7,65.6,59.2,58.6,55.6,53.7,84,71,53,29.59,29.55,12,3,12,0.01
2013-8-24,70.9,64.0,56.3,59.5,56.3,49.7,88,77,58,29.61,29.55,6,1,6,0.13
2013-8-25,67.7,58.7,46.4,59.3,52.1,42.0,87,79,67,29.62,29.56,7,2,7,0.01
2013-8-26,75.6,64.0,57.6,58.8,55.9,53.2,88,76,46,29.63,29.56,16,4,16,0.09
2013-8-27,79.4,67.1,59.2,63.6,59.8,54.7,89,78,54,29.63,29.48,6,1,6,0.04
2013-8-28,80.6,68.5,60.5,64.8,61.3,57.2,89,79,55,29.59,29.51,6,2,6,0.20
2013-8-29,73.1,66.5,62.6,68.0,61.8,58.4,89,85,79,29.72,29.52,12,2,12,1.24
2013-8-30,83.5,69.6,61.9,83.2,60.3,55.6,99,74,51,29.81,29.72,7,3,7,0.01
2013-8-31,67.7,57.9,25.0,58.8,51.6,24.8,99,80,73,29.72,29.52,1,0,1,0.01
2013-9-1,62.1,57.5,54.4,57.5,52.8,50.2,87,84,81,29.57,29.53,2,0,2,0.00
2013-9-3,73.3,66.6,59.4,64.6,61.1,56.8,91,83,72,29.66,29.64,9,2,9,0.00
2013-9-4,72.4,66.1,56.7,62.9,60.2,54.1,93,82,68,29.72,29.67,10,3,10,0.00
2013-9-5,61.2,60.2,59.4,58.7,57.8,57.1,93,92,89,29.71,29.65,10,2,10,0.07
2013-9-14,71.5,65.6,58.7,64.1,60.2,55.0,89,83,77,29.48,29.39,9,2,9,0.00
2013-9-15,65.2,62.3,58.9,61.9,59.3,55.6,92,90,87,29.50,29.39,10,1,10,0.09
2013-9-16,68.0,62.3,53.6,62.5,57.7,49.5,92,85,72,29.60,29.50,13,4,13,0.01
2013-9-17,68.8,57.2,49.5,55.5,49.7,45.8,91,77,56,29.61,29.43,15,2,15,0.00
2013-9-18,69.5,57.2,46.4,57.0,49.3,43.0,90,76,52,29.65,29.45,11,2,11,0.02
2013-9-19,79.9,59.5,44.3,57.2,48.7,40.7,89,71,35,29.56,29.12,20,2,20,0.01
2013-9-20,71.8,57.1,45.4,56.5,50.6,40.2,89,79,56,29.22,28.86,15,3,15,0.07
2013-9-21,67.9,58.0,51.1,59.5,53.7,48.2,93,86,69,28.98,28.86,9,2,9,0.06
2013-9-22,62.3,56.3,54.2,58.1,53.1,51.0,92,89,85,28.95,28.65,24,5,24,0.63
2013-9-23,63.4,56.2,50.0,56.3,52.2,46.3,93,87,70,28.95,28.79,13,2,13,0.36
2013-9-24,65.7,53.1,46.4,55.3,48.5,44.0,93,85,61,28.92,28.52,16,2,16,0.12
2013-9-25,57.6,51.9,46.6,51.9,48.2,43.1,93,87,77,28.69,28.50,7,1,7,0.09
2013-9-26,66.1,50.9,40.7,55.5,45.7,38.1,92,83,63,28.68,28.47,10,2,10,0.01
2013-9-27,52.9,48.8,45.0,50.6,46.0,41.3,92,90,87,28.56,28.30,19,6,19,0.23
2013-9-29,55.1,53.4,51.5,52.2,50.3,44.0,93,89,75,29.42,29.05,28,5,28,1.78
2013-9-30,58.3,53.1,49.3,52.4,48.5,45.7,90,85,73,29.75,29.31,15,3,15,1.64
2013-10-1,60.1,51.7,48.1,51.9,47.0,45.1,91,84,62,29.96,29.73,13,2,13,0.20
2013-10-2,56.2,49.9,46.1,50.4,46.4,43.1,91,88,77,29.96,29.84,14,3,14,0.22
2013-10-3,56.2,50.0,44.5,48.2,44.5,40.7,88,82,69,30.23,30.18,8,1,8,0.00
2013-10-4,44.8,42.9,41.0,41.3,39.9,38.3,91,89,88,30.25,30.23,2,0,2,0.00